createdAt,value
2019-01-20T00:00:45.710Z,6.40
2019-01-20T00:03:12.917Z,6.40
2019-01-20T00:05:40.155Z,6.60
2019-01-20T00:08:07.403Z,7.17
2019-01-20T00:10:34.637Z,6.57
2019-01-20T00:13:02.314Z,6.33
2019-01-20T00:15:29.622Z,6.47
2019-01-20T00:17:56.861Z,6.33
2019-01-20T00:20:24.177Z,6.17
2019-01-20T00:22:51.414Z,7.00
2019-01-20T00:25:18.684Z,6.67
2019-01-20T00:27:45.957Z,6.33
2019-01-20T00:30:13.512Z,6.20
2019-01-20T00:32:40.735Z,6.70
2019-01-20T00:35:08.068Z,5.83
2019-01-20T00:37:35.297Z,6.93
2019-01-20T00:40:04.133Z,6.73
2019-01-20T00:42:31.380Z,6.40
2019-01-20T00:45:02.958Z,6.60
2019-01-20T00:47:27.741Z,6.10
2019-01-20T00:49:54.951Z,6.17
2019-01-20T00:52:22.161Z,6.10
2019-01-20T00:54:49.415Z,6.00
2019-01-20T00:57:16.646Z,6.57
2019-01-20T00:59:45.520Z,6.07
2019-01-20T01:02:12.770Z,6.50
2019-01-20T01:04:39.998Z,5.93
2019-01-20T01:07:07.307Z,6.33
2019-01-20T01:09:34.604Z,6.00
2019-01-20T01:12:01.912Z,6.47
2019-01-20T01:14:29.149Z,5.60
2019-01-20T01:16:56.348Z,6.00
2019-01-20T01:19:23.559Z,6.63
2019-01-20T01:21:50.792Z,6.67
2019-01-20T01:24:18.024Z,6.07
2019-01-20T01:26:45.288Z,6.37
2019-01-20T01:29:12.777Z,6.27
2019-01-20T01:31:40.016Z,6.13
2019-01-20T01:34:07.227Z,6.03
2019-01-20T01:36:34.564Z,5.87
2019-01-20T01:39:01.760Z,5.93
2019-01-20T01:41:29.102Z,6.40
2019-01-20T01:43:56.415Z,5.53
2019-01-20T01:46:23.588Z,5.77
2019-01-20T01:48:51.156Z,5.53
2019-01-20T01:51:18.401Z,6.10
2019-01-20T01:53:45.631Z,6.33
2019-01-20T01:56:12.822Z,5.70
2019-01-20T01:58:40.073Z,5.60
2019-01-20T02:01:07.413Z,6.07
2019-01-20T02:03:34.614Z,5.90
2019-01-20T02:06:01.880Z,5.80
2019-01-20T02:08:29.096Z,6.20
2019-01-20T02:10:56.336Z,6.43
2019-01-20T02:13:23.586Z,5.40
2019-01-20T02:15:50.873Z,5.60
2019-01-20T02:18:18.079Z,6.57
2019-01-20T02:20:45.316Z,6.57
2019-01-20T02:23:12.728Z,6.77
2019-01-20T02:25:40.077Z,6.33
2019-01-20T02:28:07.525Z,6.77
2019-01-20T02:30:34.746Z,6.00
2019-01-20T02:33:02.130Z,6.30
2019-01-20T02:35:29.410Z,7.60
2019-01-20T02:37:56.638Z,7.13
2019-01-20T02:40:23.855Z,6.70
2019-01-20T02:42:51.062Z,6.37
2019-01-20T02:45:18.397Z,7.13
2019-01-20T02:47:45.600Z,6.80
2019-01-20T02:50:14.607Z,7.30
2019-01-20T02:52:41.851Z,6.73
2019-01-20T02:55:09.266Z,5.93
2019-01-20T02:57:36.490Z,6.60
2019-01-20T03:00:07.331Z,6.67
2019-01-20T03:02:34.536Z,5.93
2019-01-20T03:05:02.074Z,6.40
2019-01-20T03:07:29.335Z,6.10
2019-01-20T03:09:56.546Z,6.60
2019-01-20T03:12:23.772Z,6.07
2019-01-20T03:14:51.012Z,6.30
2019-01-20T03:17:18.239Z,6.33
2019-01-20T03:19:45.504Z,6.50
2019-01-20T03:22:12.751Z,6.30
2019-01-20T03:24:39.945Z,6.20
2019-01-20T03:27:07.231Z,6.10
2019-01-20T03:29:34.469Z,5.87
2019-01-20T03:32:01.698Z,6.50
2019-01-20T03:34:28.908Z,6.43
2019-01-20T03:36:56.198Z,5.97
2019-01-20T03:39:23.433Z,6.20
2019-01-20T03:41:50.672Z,6.23
2019-01-20T03:44:18.034Z,5.80
2019-01-20T03:46:45.235Z,6.00
2019-01-20T03:49:12.447Z,6.03
2019-01-20T03:51:39.702Z,6.30
2019-01-20T03:54:06.917Z,5.67
2019-01-20T03:56:34.216Z,6.73
2019-01-20T03:59:01.497Z,5.80
2019-01-20T04:01:28.837Z,5.93
2019-01-20T04:03:56.091Z,5.60
2019-01-20T04:06:23.363Z,5.80
2019-01-20T04:08:50.588Z,6.50
2019-01-20T04:11:17.811Z,6.70
2019-01-20T04:13:45.080Z,6.73
2019-01-20T04:16:12.312Z,6.63
2019-01-20T04:18:39.571Z,6.67
2019-01-20T04:21:06.819Z,6.50
2019-01-20T04:23:34.051Z,7.07
2019-01-20T04:26:01.382Z,7.70
2019-01-20T04:28:28.642Z,6.93
2019-01-20T04:30:55.841Z,6.60
2019-01-20T04:33:23.079Z,6.10
2019-01-20T04:35:50.300Z,6.70
2019-01-20T04:38:17.579Z,6.80
2019-01-20T04:40:44.786Z,7.13
2019-01-20T04:43:12.000Z,6.50
2019-01-20T04:45:39.247Z,8.17
2019-01-20T04:48:06.548Z,7.10
2019-01-20T04:50:33.798Z,7.10
2019-01-20T04:53:01.011Z,6.90
2019-01-20T04:55:28.216Z,6.73
2019-01-20T04:57:55.578Z,7.77
2019-01-20T05:00:24.557Z,8.07
2019-01-20T05:02:51.787Z,8.83
2019-01-20T05:05:19.263Z,8.63
2019-01-20T05:07:46.781Z,7.87
2019-01-20T05:10:14.552Z,8.07
2019-01-20T05:12:42.002Z,8.87
2019-01-20T05:15:11.337Z,7.70
2019-01-20T05:17:38.607Z,8.37
2019-01-20T05:20:06.139Z,8.50
2019-01-20T05:22:33.435Z,7.67
2019-01-20T05:25:00.881Z,7.77
2019-01-20T05:27:28.173Z,7.40
2019-01-20T05:29:55.437Z,7.03
2019-01-20T05:32:22.667Z,6.87
2019-01-20T05:34:49.927Z,7.80
2019-01-20T05:37:17.181Z,7.60
2019-01-20T05:39:44.409Z,7.73
2019-01-20T05:42:11.625Z,7.60
2019-01-20T05:44:38.894Z,8.07
2019-01-20T05:47:06.080Z,7.90
2019-01-20T05:49:33.415Z,7.73
2019-01-20T05:52:00.670Z,7.97
2019-01-20T05:54:28.013Z,7.53
2019-01-20T05:56:55.225Z,7.43
2019-01-20T05:59:22.570Z,8.27
2019-01-20T06:01:49.836Z,7.87
2019-01-20T06:04:17.038Z,8.27
2019-01-20T06:06:44.258Z,8.30
2019-01-20T06:09:11.702Z,8.67
2019-01-20T06:11:38.943Z,8.40
2019-01-20T06:14:06.151Z,8.63
2019-01-20T06:16:33.381Z,8.37
2019-01-20T06:19:00.632Z,9.87
2019-01-20T06:21:27.914Z,9.87
2019-01-20T06:23:55.133Z,9.97
2019-01-20T06:26:22.419Z,10.53
2019-01-20T06:28:49.664Z,11.17
2019-01-20T06:31:16.901Z,12.33
2019-01-20T06:33:44.180Z,10.53
2019-01-20T06:36:11.388Z,10.07
2019-01-20T06:38:38.746Z,8.37
2019-01-20T06:41:05.946Z,9.13
2019-01-20T06:43:33.195Z,8.80
2019-01-20T06:46:00.444Z,9.37
2019-01-20T06:48:27.661Z,9.50
2019-01-20T06:50:54.895Z,10.07
2019-01-20T06:53:22.135Z,11.27
2019-01-20T06:55:49.644Z,9.77
2019-01-20T06:58:16.913Z,9.30
2019-01-20T07:00:44.119Z,10.00
2019-01-20T07:03:11.354Z,10.67
2019-01-20T07:05:38.597Z,10.40
2019-01-20T07:08:05.915Z,11.27
2019-01-20T07:10:33.241Z,9.73
2019-01-20T07:13:00.502Z,10.90
2019-01-20T07:15:27.703Z,10.83
2019-01-20T07:17:54.927Z,11.60
2019-01-20T07:20:22.256Z,11.13
2019-01-20T07:22:49.691Z,12.80
2019-01-20T07:25:17.108Z,13.03
2019-01-20T07:27:44.623Z,14.03
2019-01-20T07:30:14.792Z,13.23
2019-01-20T07:32:42.083Z,13.57
2019-01-20T07:35:10.043Z,12.03
2019-01-20T07:37:37.236Z,10.50
2019-01-20T07:40:05.721Z,10.13
2019-01-20T07:42:32.964Z,10.57
2019-01-20T07:45:00.259Z,10.10
2019-01-20T07:47:27.502Z,10.37
2019-01-20T07:49:54.719Z,9.33
2019-01-20T07:52:21.935Z,11.03
2019-01-20T07:54:49.139Z,11.40
2019-01-20T07:57:16.377Z,13.63
2019-01-20T07:59:45.847Z,14.70
2019-01-20T08:02:13.093Z,13.17
2019-01-20T08:04:40.302Z,15.17
2019-01-20T08:07:07.539Z,15.70
2019-01-20T08:09:34.769Z,14.20
2019-01-20T08:12:01.986Z,12.60
2019-01-20T08:14:29.247Z,11.80
2019-01-20T08:16:57.515Z,13.83
2019-01-20T08:19:24.749Z,14.40
2019-01-20T08:21:51.977Z,15.80
2019-01-20T08:24:19.256Z,16.50
2019-01-20T08:26:48.024Z,17.10
2019-01-20T08:29:15.500Z,17.13
2019-01-20T08:31:42.815Z,17.57
2019-01-20T08:34:10.052Z,17.53
2019-01-20T08:36:37.251Z,17.20
2019-01-20T08:39:06.522Z,17.63
2019-01-20T08:41:33.754Z,18.30
2019-01-20T08:44:00.970Z,19.43
2019-01-20T08:46:58.846Z,19.43
2019-01-20T08:49:26.099Z,19.30
2019-01-20T08:51:53.326Z,19.77
2019-01-20T08:54:20.533Z,18.03
2019-01-20T08:56:47.739Z,18.27
2019-01-20T08:59:14.979Z,17.10
2019-01-20T09:01:42.197Z,15.53
2019-01-20T09:04:09.713Z,17.40
2019-01-20T09:06:36.921Z,20.13
2019-01-20T09:09:06.692Z,18.70
2019-01-20T09:11:33.963Z,16.90
2019-01-20T09:14:01.415Z,19.07
2019-01-20T09:16:28.682Z,19.33
2019-01-20T09:18:55.885Z,16.37
2019-01-20T09:21:23.087Z,15.73
2019-01-20T09:23:50.329Z,13.57
2019-01-20T09:26:17.609Z,14.03
2019-01-20T09:28:44.956Z,17.13
2019-01-20T09:31:12.198Z,17.93
2019-01-20T09:33:39.718Z,17.27
2019-01-20T09:36:06.948Z,17.57
2019-01-20T09:38:34.177Z,16.77
2019-01-20T09:41:01.418Z,19.33
2019-01-20T09:43:28.721Z,18.60
2019-01-20T09:45:56.081Z,18.97
2019-01-20T09:48:23.557Z,19.73
2019-01-20T09:50:50.827Z,18.37
2019-01-20T09:53:18.080Z,19.97
2019-01-20T09:55:45.319Z,20.07
2019-01-20T09:58:12.538Z,21.17
2019-01-20T10:00:39.774Z,19.67
2019-01-20T10:03:07.023Z,19.27
2019-01-20T10:05:34.242Z,19.10
2019-01-20T10:08:02.765Z,20.30
2019-01-20T10:10:30.014Z,18.47
2019-01-20T10:12:57.444Z,19.27
2019-01-20T10:15:24.777Z,18.40
2019-01-20T10:17:51.990Z,19.17
2019-01-20T10:20:24.596Z,18.60
2019-01-20T10:22:51.849Z,17.33
2019-01-20T10:25:19.192Z,20.60
2019-01-20T10:27:46.844Z,20.07
2019-01-20T10:30:17.567Z,21.73
2019-01-20T10:32:48.024Z,18.80
2019-01-20T10:35:14.840Z,20.57
2019-01-20T10:37:42.314Z,19.23
2019-01-20T10:40:09.523Z,18.93
2019-01-20T10:42:36.743Z,18.47
2019-01-20T10:45:05.267Z,19.47
2019-01-20T10:47:32.462Z,17.90
2019-01-20T10:49:59.711Z,19.30
2019-01-20T10:52:27.122Z,18.17
2019-01-20T10:54:54.360Z,17.50
2019-01-20T10:57:21.590Z,17.30
2019-01-20T10:59:48.843Z,16.47
2019-01-20T11:02:16.046Z,17.27
2019-01-20T11:04:43.271Z,17.50
2019-01-20T11:07:10.533Z,15.17
2019-01-20T11:09:37.777Z,18.37
2019-01-20T11:12:05.083Z,17.33
2019-01-20T11:14:32.319Z,15.30
2019-01-20T11:16:59.548Z,16.27
2019-01-20T11:19:26.905Z,15.50
2019-01-20T11:21:54.103Z,19.37
2019-01-20T11:24:21.350Z,17.27
2019-01-20T11:26:48.782Z,17.33
2019-01-20T11:29:16.067Z,15.40
2019-01-20T11:31:43.277Z,16.07
2019-01-20T11:34:10.521Z,15.37
2019-01-20T11:36:37.717Z,16.30
2019-01-20T11:39:09.376Z,19.10
2019-01-20T11:41:36.640Z,18.03
2019-01-20T11:44:03.870Z,17.10
2019-01-20T11:46:31.096Z,19.33
2019-01-20T11:48:58.347Z,18.27
2019-01-20T11:51:25.561Z,18.80
2019-01-20T11:53:52.771Z,20.17
2019-01-20T11:56:20.031Z,18.93
2019-01-20T11:58:47.239Z,18.77
2019-01-20T12:01:14.512Z,18.40
2019-01-20T12:03:41.734Z,19.07
2019-01-20T12:06:08.969Z,19.07
2019-01-20T12:08:36.201Z,19.03
2019-01-20T12:11:03.404Z,19.87
2019-01-20T12:13:30.825Z,19.50
2019-01-20T12:15:58.067Z,19.80
2019-01-20T12:18:25.287Z,18.83
2019-01-20T12:20:52.501Z,19.67
2019-01-20T12:23:19.746Z,17.33
2019-01-20T12:25:46.989Z,21.60
2019-01-20T12:28:14.303Z,17.93
2019-01-20T12:30:41.571Z,18.20
2019-01-20T12:33:08.914Z,17.60
2019-01-20T12:35:36.273Z,19.37
2019-01-20T12:38:03.802Z,19.57
2019-01-20T12:40:34.054Z,21.77
2019-01-20T12:43:01.227Z,20.77
2019-01-20T12:45:28.483Z,20.00
2019-01-20T12:47:55.680Z,20.43
2019-01-20T12:50:22.922Z,21.30
2019-01-20T12:52:50.176Z,19.80
2019-01-20T12:55:17.474Z,20.07
2019-01-20T12:57:47.128Z,21.10
2019-01-20T13:00:15.735Z,17.57
2019-01-20T13:02:42.957Z,21.03
2019-01-20T13:05:10.442Z,20.00
2019-01-20T13:07:37.662Z,20.63
2019-01-20T13:10:06.877Z,18.67
2019-01-20T13:12:34.151Z,16.00
2019-01-20T13:15:01.373Z,16.03
2019-01-20T13:17:28.621Z,15.37
2019-01-20T13:19:55.831Z,14.10
2019-01-20T13:22:23.058Z,14.97
2019-01-20T13:24:50.307Z,17.77
2019-01-20T13:27:17.531Z,15.83
2019-01-20T13:29:44.848Z,18.70
2019-01-20T13:32:12.056Z,17.10
2019-01-20T13:34:39.269Z,18.50
2019-01-20T13:37:06.515Z,20.20
2019-01-20T13:39:33.762Z,15.83
2019-01-20T13:42:00.971Z,15.73
2019-01-20T13:44:28.317Z,14.60
2019-01-20T13:46:55.567Z,18.90
2019-01-20T13:49:22.778Z,17.73
2019-01-20T13:51:50.024Z,16.60
2019-01-20T13:54:17.224Z,18.40
2019-01-20T13:56:44.489Z,18.37
2019-01-20T13:59:11.703Z,20.53
2019-01-20T14:01:38.917Z,18.80
2019-01-20T14:04:06.178Z,17.10
2019-01-20T14:06:34.311Z,15.60
2019-01-20T14:09:01.527Z,16.60
2019-01-20T14:11:28.797Z,14.17
2019-01-20T14:13:56.027Z,17.60
2019-01-20T14:16:23.245Z,21.00
2019-01-20T14:18:50.494Z,18.77
2019-01-20T14:21:17.717Z,16.90
2019-01-20T14:23:44.969Z,15.30
2019-01-20T14:26:12.243Z,14.70
2019-01-20T14:28:39.503Z,14.77
2019-01-20T14:31:06.788Z,14.60
2019-01-20T14:33:34.025Z,15.87
2019-01-20T14:36:01.233Z,16.53
2019-01-20T14:38:28.497Z,13.13
2019-01-20T14:40:55.703Z,15.07
2019-01-20T14:43:22.907Z,17.17
2019-01-20T14:45:50.165Z,18.17
2019-01-20T14:48:17.360Z,15.50
2019-01-20T14:50:44.590Z,15.50
2019-01-20T14:53:11.879Z,16.03
2019-01-20T14:55:39.088Z,14.27
2019-01-20T14:58:06.339Z,13.03
2019-01-20T15:00:35.208Z,12.20
2019-01-20T15:03:02.502Z,12.93
2019-01-20T15:05:29.976Z,13.60
2019-01-20T15:07:57.587Z,15.13
2019-01-20T15:10:24.899Z,14.97
2019-01-20T15:12:52.145Z,14.47
2019-01-20T15:15:21.931Z,14.73
2019-01-20T15:17:49.155Z,15.77
2019-01-20T15:20:16.401Z,15.87
2019-01-20T15:22:43.675Z,13.90
2019-01-20T15:25:11.930Z,13.53
2019-01-20T15:27:39.156Z,12.90
2019-01-20T15:30:11.514Z,13.03
2019-01-20T15:32:38.770Z,12.73
2019-01-20T15:35:06.197Z,12.97
2019-01-20T15:37:33.449Z,12.90
2019-01-20T15:40:00.674Z,12.03
2019-01-20T15:42:27.929Z,11.77
2019-01-20T15:44:55.404Z,13.30
2019-01-20T15:47:22.667Z,12.47
2019-01-20T15:49:49.942Z,11.97
2019-01-20T15:52:17.173Z,12.17
2019-01-20T15:54:44.413Z,12.40
2019-01-20T15:57:11.712Z,13.57
2019-01-20T15:59:39.226Z,14.07
2019-01-20T16:02:06.432Z,13.43
2019-01-20T16:04:33.688Z,13.60
2019-01-20T16:07:00.933Z,14.43
2019-01-20T16:09:28.158Z,13.00
2019-01-20T16:11:55.447Z,13.13
2019-01-20T16:14:22.957Z,13.13
2019-01-20T16:16:50.254Z,13.60
2019-01-20T16:19:17.742Z,13.70
2019-01-20T16:21:44.957Z,11.83
2019-01-20T16:24:12.212Z,12.97
2019-01-20T16:26:40.030Z,14.80
2019-01-20T16:29:07.286Z,13.60
2019-01-20T16:31:39.780Z,13.47
2019-01-20T16:34:03.720Z,15.00
2019-01-20T16:36:30.980Z,15.83
2019-01-20T16:38:58.201Z,15.60
2019-01-20T16:41:25.426Z,14.70
2019-01-20T16:43:52.616Z,13.67
2019-01-20T16:46:19.910Z,17.00
2019-01-20T16:48:47.156Z,23.03
2019-01-20T16:51:14.370Z,20.40
2019-01-20T16:53:41.589Z,24.97
2019-01-20T16:56:08.904Z,26.67
2019-01-20T16:58:36.153Z,23.67
2019-01-20T17:01:03.432Z,29.47
2019-01-20T17:03:30.685Z,24.67
2019-01-20T17:05:57.950Z,23.90
2019-01-20T17:08:25.171Z,20.53
2019-01-20T17:10:52.529Z,25.90
2019-01-20T17:13:19.780Z,23.33
2019-01-20T17:15:47.134Z,21.33
2019-01-20T17:18:15.076Z,21.80
2019-01-20T17:20:42.410Z,20.67
2019-01-20T17:23:09.777Z,21.87
2019-01-20T17:25:37.003Z,19.70
2019-01-20T17:28:04.482Z,19.90
2019-01-20T17:30:32.254Z,20.00
2019-01-20T17:32:59.757Z,19.20
2019-01-20T17:35:26.993Z,19.63
2019-01-20T17:37:54.268Z,18.40
2019-01-20T17:40:23.143Z,18.77
2019-01-20T17:42:50.386Z,17.67
2019-01-20T17:45:20.484Z,17.20
2019-01-20T17:47:48.113Z,15.83
2019-01-20T17:50:20.828Z,16.47
2019-01-20T17:52:48.926Z,15.90
2019-01-20T17:55:17.574Z,14.10
2019-01-20T17:57:44.949Z,16.10
2019-01-20T18:00:15.745Z,15.33
2019-01-20T18:02:43.072Z,15.27
2019-01-20T18:05:12.481Z,19.20
2019-01-20T18:07:39.748Z,19.50
2019-01-20T18:10:08.967Z,18.53
2019-01-20T18:12:36.220Z,16.60
2019-01-20T18:15:04.604Z,21.60
2019-01-20T18:17:31.869Z,19.43
2019-01-20T18:19:59.188Z,18.73
2019-01-20T18:22:26.654Z,19.50
2019-01-20T18:24:54.193Z,16.30
2019-01-20T18:27:21.403Z,15.90
2019-01-20T18:29:48.658Z,15.13
2019-01-20T18:32:15.917Z,19.60
2019-01-20T18:34:43.191Z,22.37
2019-01-20T18:37:10.514Z,25.40
2019-01-20T18:39:37.779Z,20.27
2019-01-20T18:42:05.001Z,16.97
2019-01-20T18:44:32.408Z,17.90
2019-01-20T18:46:59.632Z,18.33
2019-01-20T18:49:26.850Z,25.97
2019-01-20T18:51:54.099Z,21.43
2019-01-20T18:54:21.317Z,23.20
2019-01-20T18:56:48.551Z,19.13
2019-01-20T18:59:15.937Z,20.03
2019-01-20T19:01:43.154Z,18.70
2019-01-20T19:04:10.388Z,19.60
2019-01-20T19:06:37.628Z,18.43
2019-01-20T19:09:07.115Z,20.13
2019-01-20T19:11:34.344Z,20.13
2019-01-20T19:14:01.550Z,23.90
2019-01-20T19:16:28.828Z,23.23
2019-01-20T19:18:56.061Z,21.20
2019-01-20T19:21:23.361Z,20.57
2019-01-20T19:23:50.619Z,19.50
2019-01-20T19:26:17.833Z,20.53
2019-01-20T19:28:45.047Z,22.40
2019-01-20T19:31:12.339Z,23.97
2019-01-20T19:33:39.646Z,21.10
2019-01-20T19:36:08.204Z,18.43
2019-01-20T19:38:35.455Z,18.33
2019-01-20T19:41:02.689Z,21.00
2019-01-20T19:43:29.945Z,19.53
2019-01-20T19:45:57.275Z,18.80
2019-01-20T19:48:24.496Z,17.73
2019-01-20T19:50:51.797Z,18.10
2019-01-20T19:53:19.020Z,18.53
2019-01-20T19:55:46.286Z,17.60
2019-01-20T19:58:13.554Z,18.20
2019-01-20T20:00:40.805Z,18.73
2019-01-20T20:03:08.048Z,17.73
2019-01-20T20:05:35.275Z,17.13
2019-01-20T20:08:02.893Z,18.83
2019-01-20T20:10:30.128Z,17.63
2019-01-20T20:12:57.808Z,17.17
2019-01-20T20:15:25.594Z,17.83
2019-01-20T20:17:53.042Z,16.10
2019-01-20T20:20:20.584Z,15.23
2019-01-20T20:22:48.180Z,15.03
2019-01-20T20:25:16.440Z,14.97
2019-01-20T20:27:43.784Z,14.73
2019-01-20T20:30:14.169Z,14.90
2019-01-20T20:32:41.475Z,14.87
2019-01-20T20:35:08.856Z,14.70
2019-01-20T20:37:36.156Z,14.93
2019-01-20T20:40:04.839Z,14.17
2019-01-20T20:42:32.226Z,15.00
2019-01-20T20:44:59.439Z,13.67
2019-01-20T20:47:26.708Z,14.07
2019-01-20T20:49:53.931Z,15.13
2019-01-20T20:52:21.665Z,15.03
2019-01-20T20:54:48.907Z,13.90
2019-01-20T20:57:16.170Z,14.10
2019-01-20T20:59:43.551Z,15.43
2019-01-20T21:02:10.868Z,14.87
2019-01-20T21:04:38.119Z,15.43
2019-01-20T21:07:05.333Z,14.80
2019-01-20T21:09:33.903Z,15.87
2019-01-20T21:12:01.139Z,14.97
2019-01-20T21:14:28.516Z,14.83
2019-01-20T21:16:55.777Z,14.27
2019-01-20T21:19:23.013Z,14.83
2019-01-20T21:21:52.437Z,15.00
2019-01-20T21:24:19.669Z,15.03
2019-01-20T21:26:46.954Z,15.13
2019-01-20T21:29:14.190Z,16.87
2019-01-20T21:31:41.619Z,16.07
2019-01-20T21:34:08.892Z,16.37
2019-01-20T21:36:36.107Z,16.20
2019-01-20T21:39:06.367Z,17.97
2019-01-20T21:41:33.617Z,16.63
2019-01-20T21:44:00.860Z,15.97
2019-01-20T21:46:28.142Z,15.87
2019-01-20T21:48:55.423Z,16.67
2019-01-20T21:51:22.686Z,17.07
2019-01-20T21:53:49.897Z,15.80
2019-01-20T21:56:17.235Z,16.33
2019-01-20T21:58:44.540Z,16.90
2019-01-20T22:01:11.780Z,16.83
2019-01-20T22:03:39.024Z,16.47
2019-01-20T22:06:09.148Z,15.87
2019-01-20T22:08:37.431Z,14.07
2019-01-20T22:11:04.683Z,14.43
2019-01-20T22:13:32.028Z,15.63
2019-01-20T22:15:59.314Z,14.27
2019-01-20T22:18:26.547Z,15.03
2019-01-20T22:20:53.896Z,15.33
2019-01-20T22:23:21.174Z,13.33
2019-01-20T22:25:48.398Z,14.07
2019-01-20T22:28:15.691Z,15.53
2019-01-20T22:30:42.945Z,15.20
2019-01-20T22:33:10.344Z,14.60
2019-01-20T22:35:37.613Z,14.17
2019-01-20T22:38:04.831Z,13.20
2019-01-20T22:40:32.098Z,14.03
2019-01-20T22:42:59.331Z,13.70
2019-01-20T22:45:27.102Z,13.30
2019-01-20T22:47:54.493Z,15.03
2019-01-20T22:50:21.965Z,15.03
2019-01-20T22:52:49.157Z,14.77
2019-01-20T22:55:16.562Z,14.67
2019-01-20T22:57:44.153Z,13.80
2019-01-20T23:00:23.305Z,13.67
2019-01-20T23:02:50.623Z,15.23
2019-01-20T23:05:17.832Z,15.83
2019-01-20T23:07:45.078Z,14.47
2019-01-20T23:10:12.287Z,14.43
2019-01-20T23:12:39.541Z,14.20
2019-01-20T23:15:07.614Z,13.93
2019-01-20T23:17:34.807Z,13.67
2019-01-20T23:20:02.044Z,13.77
2019-01-20T23:22:29.272Z,14.33
2019-01-20T23:24:56.527Z,14.20
2019-01-20T23:27:23.819Z,14.23
2019-01-20T23:29:51.043Z,13.77
2019-01-20T23:32:18.271Z,14.83
2019-01-20T23:34:45.477Z,15.57
2019-01-20T23:37:12.683Z,15.57
2019-01-20T23:39:39.968Z,16.00
2019-01-20T23:42:07.184Z,15.50
2019-01-20T23:44:34.442Z,15.70
2019-01-20T23:47:01.693Z,15.80
2019-01-20T23:49:28.913Z,14.37
2019-01-20T23:51:56.180Z,14.40
2019-01-20T23:54:23.460Z,13.27
2019-01-20T23:56:50.652Z,13.87
2019-01-20T23:59:17.870Z,13.70
